sensor_id;sensor_type;location;lat;lon;timestamp;pressure;altitude;pressure_sealevel;temperature;humidity
84809;BME280;75044;53.126;18.008;2024-02-26T00:00:42;100267.55;;;5.97;73.77
84809;BME280;75044;53.126;18.008;2024-02-26T00:02:06;100264.81;;;5.96;73.80
84809;BME280;75044;53.126;18.008;2024-02-26T00:03:09;100269.63;;;5.97;73.69
84809;BME280;75044;53.126;18.008;2024-02-26T00:04:17;100268.95;;;5.97;73.71
84809;BME280;75044;53.126;18.008;2024-02-26T00:05:21;100266.88;;;5.96;73.75
84809;BME280;75044;53.126;18.008;2024-02-26T00:06:24;100266.57;;;5.95;73.76
84809;BME280;75044;53.126;18.008;2024-02-26T00:07:29;100267.65;;;5.95;73.58
84809;BME280;75044;53.126;18.008;2024-02-26T00:08:32;100269.95;;;5.94;73.70
84809;BME280;75044;53.126;18.008;2024-02-26T00:09:36;100268.30;;;5.92;73.49
84809;BME280;75044;53.126;18.008;2024-02-26T00:10:42;100271.30;;;5.87;73.62
84809;BME280;75044;53.126;18.008;2024-02-26T00:11:45;100270.20;;;5.84;73.67
84809;BME280;75044;53.126;18.008;2024-02-26T00:12:49;100272.19;;;5.82;73.79
84809;BME280;75044;53.126;18.008;2024-02-26T00:13:53;100267.23;;;5.80;73.87
84809;BME280;75044;53.126;18.008;2024-02-26T00:14:56;100270.92;;;5.79;73.86
84809;BME280;75044;53.126;18.008;2024-02-26T00:16:01;100270.84;;;5.77;73.75
84809;BME280;75044;53.126;18.008;2024-02-26T00:17:05;100269.88;;;5.75;73.62
84809;BME280;75044;53.126;18.008;2024-02-26T00:18:08;100271.55;;;5.73;73.75
84809;BME280;75044;53.126;18.008;2024-02-26T00:19:14;100268.46;;;5.68;73.68
84809;BME280;75044;53.126;18.008;2024-02-26T00:20:19;100271.63;;;5.67;73.50
84809;BME280;75044;53.126;18.008;2024-02-26T00:21:23;100272.64;;;5.64;73.67
84809;BME280;75044;53.126;18.008;2024-02-26T00:22:26;100271.44;;;5.60;73.62
84809;BME280;75044;53.126;18.008;2024-02-26T00:23:32;100271.55;;;5.57;73.64
84809;BME280;75044;53.126;18.008;2024-02-26T00:24:43;100271.43;;;5.56;73.62
84809;BME280;75044;53.126;18.008;2024-02-26T00:25:47;100269.23;;;5.55;73.71
84809;BME280;75044;53.126;18.008;2024-02-26T00:26:50;100269.56;;;5.55;73.84
84809;BME280;75044;53.126;18.008;2024-02-26T00:28:00;100267.86;;;5.55;73.63
84809;BME280;75044;53.126;18.008;2024-02-26T00:29:03;100264.75;;;5.54;73.58
84809;BME280;75044;53.126;18.008;2024-02-26T00:30:06;100262.86;;;5.54;73.53
84809;BME280;75044;53.126;18.008;2024-02-26T00:31:10;100260.76;;;5.50;73.64
84809;BME280;75044;53.126;18.008;2024-02-26T00:32:14;100259.49;;;5.48;73.64
84809;BME280;75044;53.126;18.008;2024-02-26T00:33:17;100259.74;;;5.46;73.64
84809;BME280;75044;53.126;18.008;2024-02-26T00:34:21;100259.69;;;5.44;73.58
84809;BME280;75044;53.126;18.008;2024-02-26T00:35:26;100257.52;;;5.42;73.68
84809;BME280;75044;53.126;18.008;2024-02-26T00:36:30;100257.59;;;5.40;73.75
84809;BME280;75044;53.126;18.008;2024-02-26T00:37:33;100256.79;;;5.38;73.85
84809;BME280;75044;53.126;18.008;2024-02-26T00:38:37;100255.14;;;5.37;73.85
84809;BME280;75044;53.126;18.008;2024-02-26T00:39:40;100254.86;;;5.35;73.82
84809;BME280;75044;53.126;18.008;2024-02-26T00:40:43;100255.80;;;5.33;73.62
84809;BME280;75044;53.126;18.008;2024-02-26T00:41:48;100259.52;;;5.31;73.97
84809;BME280;75044;53.126;18.008;2024-02-26T00:42:53;100257.52;;;5.29;73.83
84809;BME280;75044;53.126;18.008;2024-02-26T00:43:57;100258.95;;;5.29;73.71
84809;BME280;75044;53.126;18.008;2024-02-26T00:45:00;100261.52;;;5.29;73.70
84809;BME280;75044;53.126;18.008;2024-02-26T00:46:03;100259.83;;;5.28;73.92
84809;BME280;75044;53.126;18.008;2024-02-26T00:47:06;100260.57;;;5.27;73.80
84809;BME280;75044;53.126;18.008;2024-02-26T00:48:10;100259.06;;;5.26;73.68
84809;BME280;75044;53.126;18.008;2024-02-26T00:49:13;100258.73;;;5.25;73.96
84809;BME280;75044;53.126;18.008;2024-02-26T00:50:16;100255.23;;;5.22;73.89
84809;BME280;75044;53.126;18.008;2024-02-26T00:51:19;100256.65;;;5.21;73.67
84809;BME280;75044;53.126;18.008;2024-02-26T00:52:23;100254.96;;;5.20;73.89
84809;BME280;75044;53.126;18.008;2024-02-26T00:53:26;100255.22;;;5.18;73.75
84809;BME280;75044;53.126;18.008;2024-02-26T00:54:31;100257.12;;;5.18;73.81
84809;BME280;75044;53.126;18.008;2024-02-26T00:55:34;100256.08;;;5.18;73.93
84809;BME280;75044;53.126;18.008;2024-02-26T00:56:39;100256.30;;;5.17;73.90
84809;BME280;75044;53.126;18.008;2024-02-26T00:57:43;100254.96;;;5.16;73.88
84809;BME280;75044;53.126;18.008;2024-02-26T00:58:46;100253.99;;;5.15;73.98
84809;BME280;75044;53.126;18.008;2024-02-26T00:59:50;100252.69;;;5.13;74.00
84809;BME280;75044;53.126;18.008;2024-02-26T01:00:54;100253.05;;;5.12;73.88
84809;BME280;75044;53.126;18.008;2024-02-26T01:01:57;100253.44;;;5.11;74.05
84809;BME280;75044;53.126;18.008;2024-02-26T01:03:03;100250.51;;;5.11;73.96
84809;BME280;75044;53.126;18.008;2024-02-26T01:04:07;100251.91;;;5.11;73.98
84809;BME280;75044;53.126;18.008;2024-02-26T01:05:11;100250.33;;;5.11;74.06
84809;BME280;75044;53.126;18.008;2024-02-26T01:06:14;100250.58;;;5.14;74.10
84809;BME280;75044;53.126;18.008;2024-02-26T01:07:18;100248.84;;;5.14;74.00
84809;BME280;75044;53.126;18.008;2024-02-26T01:08:21;100245.29;;;5.12;74.10
84809;BME280;75044;53.126;18.008;2024-02-26T01:09:26;100251.59;;;5.15;74.12
84809;BME280;75044;53.126;18.008;2024-02-26T01:10:29;100252.40;;;5.16;73.81
84809;BME280;75044;53.126;18.008;2024-02-26T01:11:32;100250.52;;;5.15;74.03
84809;BME280;75044;53.126;18.008;2024-02-26T01:12:35;100248.44;;;5.15;74.22
84809;BME280;75044;53.126;18.008;2024-02-26T01:13:39;100251.60;;;5.14;73.95
84809;BME280;75044;53.126;18.008;2024-02-26T01:14:42;100252.13;;;5.14;74.25
84809;BME280;75044;53.126;18.008;2024-02-26T01:15:45;100251.25;;;5.14;74.29
84809;BME280;75044;53.126;18.008;2024-02-26T01:16:50;100252.09;;;5.15;74.05
84809;BME280;75044;53.126;18.008;2024-02-26T01:17:54;100257.45;;;5.15;74.01
84809;BME280;75044;53.126;18.008;2024-02-26T01:18:57;100259.55;;;5.14;73.89
84809;BME280;75044;53.126;18.008;2024-02-26T01:20:01;100258.20;;;5.13;73.99
84809;BME280;75044;53.126;18.008;2024-02-26T01:21:04;100257.14;;;5.14;74.11
84809;BME280;75044;53.126;18.008;2024-02-26T01:22:11;100260.09;;;5.14;74.04
84809;BME280;75044;53.126;18.008;2024-02-26T01:23:14;100259.95;;;5.13;73.93
84809;BME280;75044;53.126;18.008;2024-02-26T01:24:18;100261.14;;;5.13;74.06
84809;BME280;75044;53.126;18.008;2024-02-26T01:25:21;100260.27;;;5.14;73.95
84809;BME280;75044;53.126;18.008;2024-02-26T01:26:27;100260.90;;;5.15;73.97
84809;BME280;75044;53.126;18.008;2024-02-26T01:27:33;100264.09;;;5.17;73.99
84809;BME280;75044;53.126;18.008;2024-02-26T01:28:37;100265.08;;;5.18;74.00
84809;BME280;75044;53.126;18.008;2024-02-26T01:29:40;100260.88;;;5.20;73.87
84809;BME280;75044;53.126;18.008;2024-02-26T01:30:43;100263.05;;;5.21;73.91
84809;BME280;75044;53.126;18.008;2024-02-26T01:31:46;100262.69;;;5.22;73.97
84809;BME280;75044;53.126;18.008;2024-02-26T01:32:49;100267.08;;;5.24;74.06
84809;BME280;75044;53.126;18.008;2024-02-26T01:33:54;100264.77;;;5.26;73.97
84809;BME280;75044;53.126;18.008;2024-02-26T01:34:57;100264.58;;;5.26;73.94
84809;BME280;75044;53.126;18.008;2024-02-26T01:36:00;100267.09;;;5.28;73.98
84809;BME280;75044;53.126;18.008;2024-02-26T01:37:04;100262.52;;;5.30;73.77
84809;BME280;75044;53.126;18.008;2024-02-26T01:38:08;100264.92;;;5.30;73.53
84809;BME280;75044;53.126;18.008;2024-02-26T01:39:11;100263.20;;;5.30;73.66
84809;BME280;75044;53.126;18.008;2024-02-26T01:40:16;100266.36;;;5.29;73.53
84809;BME280;75044;53.126;18.008;2024-02-26T01:41:22;100269.13;;;5.29;73.61
84809;BME280;75044;53.126;18.008;2024-02-26T01:42:26;100268.08;;;5.30;73.77
84809;BME280;75044;53.126;18.008;2024-02-26T01:43:29;100265.91;;;5.28;73.65
84809;BME280;75044;53.126;18.008;2024-02-26T01:44:34;100269.70;;;5.28;73.83
84809;BME280;75044;53.126;18.008;2024-02-26T01:45:37;100271.66;;;5.27;73.83
84809;BME280;75044;53.126;18.008;2024-02-26T01:46:41;100274.23;;;5.27;73.62
84809;BME280;75044;53.126;18.008;2024-02-26T01:47:45;100278.20;;;5.28;73.63
84809;BME280;75044;53.126;18.008;2024-02-26T01:48:48;100276.29;;;5.28;73.71
84809;BME280;75044;53.126;18.008;2024-02-26T01:49:53;100276.45;;;5.28;73.57
84809;BME280;75044;53.126;18.008;2024-02-26T01:50:59;100271.64;;;5.27;73.69
84809;BME280;75044;53.126;18.008;2024-02-26T01:52:03;100272.66;;;5.28;73.77
84809;BME280;75044;53.126;18.008;2024-02-26T01:53:08;100269.33;;;5.29;73.70
84809;BME280;75044;53.126;18.008;2024-02-26T01:54:12;100269.63;;;5.29;73.79
84809;BME280;75044;53.126;18.008;2024-02-26T01:55:15;100271.66;;;5.31;73.81
84809;BME280;75044;53.126;18.008;2024-02-26T01:56:21;100269.61;;;5.31;73.94
84809;BME280;75044;53.126;18.008;2024-02-26T01:57:26;100267.80;;;5.32;73.82
84809;BME280;75044;53.126;18.008;2024-02-26T01:58:30;100267.60;;;5.33;73.94
84809;BME280;75044;53.126;18.008;2024-02-26T01:59:36;100270.32;;;5.34;73.90
84809;BME280;75044;53.126;18.008;2024-02-26T02:00:41;100271.88;;;5.34;73.83
84809;BME280;75044;53.126;18.008;2024-02-26T02:01:47;100271.81;;;5.35;73.72
84809;BME280;75044;53.126;18.008;2024-02-26T02:02:53;100273.86;;;5.36;73.90
84809;BME280;75044;53.126;18.008;2024-02-26T02:03:59;100270.21;;;5.36;73.83
84809;BME280;75044;53.126;18.008;2024-02-26T02:05:03;100270.15;;;5.38;73.92
84809;BME280;75044;53.126;18.008;2024-02-26T02:06:08;100274.30;;;5.38;73.73
84809;BME280;75044;53.126;18.008;2024-02-26T02:07:13;100272.77;;;5.37;73.95
84809;BME280;75044;53.126;18.008;2024-02-26T02:08:18;100268.64;;;5.37;73.77
84809;BME280;75044;53.126;18.008;2024-02-26T02:09:21;100270.00;;;5.34;73.78
84809;BME280;75044;53.126;18.008;2024-02-26T02:10:26;100268.46;;;5.33;73.62
84809;BME280;75044;53.126;18.008;2024-02-26T02:11:30;100268.05;;;5.30;73.78
84809;BME280;75044;53.126;18.008;2024-02-26T02:12:34;100268.55;;;5.27;73.72
84809;BME280;75044;53.126;18.008;2024-02-26T02:13:40;100268.34;;;5.23;73.67
84809;BME280;75044;53.126;18.008;2024-02-26T02:14:44;100269.46;;;5.21;73.51
84809;BME280;75044;53.126;18.008;2024-02-26T02:15:48;100270.25;;;5.19;73.67
84809;BME280;75044;53.126;18.008;2024-02-26T02:16:51;100267.77;;;5.16;73.91
84809;BME280;75044;53.126;18.008;2024-02-26T02:17:54;100267.48;;;5.15;73.77
84809;BME280;75044;53.126;18.008;2024-02-26T02:18:58;100269.27;;;5.14;73.91
84809;BME280;75044;53.126;18.008;2024-02-26T02:20:02;100264.48;;;5.13;73.93
84809;BME280;75044;53.126;18.008;2024-02-26T02:21:07;100271.39;;;5.13;73.95
84809;BME280;75044;53.126;18.008;2024-02-26T02:22:10;100273.15;;;5.12;73.86
84809;BME280;75044;53.126;18.008;2024-02-26T02:23:13;100270.99;;;5.09;73.67
84809;BME280;75044;53.126;18.008;2024-02-26T02:24:17;100271.48;;;5.06;73.83
84809;BME280;75044;53.126;18.008;2024-02-26T02:25:20;100268.38;;;5.06;73.81
84809;BME280;75044;53.126;18.008;2024-02-26T02:26:24;100271.55;;;5.05;73.81
84809;BME280;75044;53.126;18.008;2024-02-26T02:27:28;100271.56;;;5.04;73.79
84809;BME280;75044;53.126;18.008;2024-02-26T02:28:32;100268.28;;;5.04;73.95
84809;BME280;75044;53.126;18.008;2024-02-26T02:29:37;100269.48;;;5.05;73.94
84809;BME280;75044;53.126;18.008;2024-02-26T02:30:40;100270.73;;;5.04;73.93
84809;BME280;75044;53.126;18.008;2024-02-26T02:31:44;100272.67;;;5.03;73.81
84809;BME280;75044;53.126;18.008;2024-02-26T02:32:47;100272.02;;;5.02;73.83
84809;BME280;75044;53.126;18.008;2024-02-26T02:33:51;100274.27;;;5.02;73.97
84809;BME280;75044;53.126;18.008;2024-02-26T02:34:55;100272.20;;;5.01;73.94
84809;BME280;75044;53.126;18.008;2024-02-26T02:36:12;100270.16;;;5.01;74.00
84809;BME280;75044;53.126;18.008;2024-02-26T02:37:16;100271.25;;;4.99;73.78
84809;BME280;75044;53.126;18.008;2024-02-26T02:38:19;100271.98;;;4.99;74.03
84809;BME280;75044;53.126;18.008;2024-02-26T02:39:24;100272.06;;;4.97;74.08
84809;BME280;75044;53.126;18.008;2024-02-26T02:40:28;100275.89;;;4.96;74.13
84809;BME280;75044;53.126;18.008;2024-02-26T02:41:31;100274.14;;;4.97;74.28
84809;BME280;75044;53.126;18.008;2024-02-26T02:42:34;100276.63;;;4.95;74.17
84809;BME280;75044;53.126;18.008;2024-02-26T02:43:38;100280.98;;;4.94;74.19
84809;BME280;75044;53.126;18.008;2024-02-26T02:44:41;100280.50;;;4.94;74.15
84809;BME280;75044;53.126;18.008;2024-02-26T02:45:44;100281.90;;;4.93;74.15
84809;BME280;75044;53.126;18.008;2024-02-26T02:46:48;100283.92;;;4.94;74.23
84809;BME280;75044;53.126;18.008;2024-02-26T02:47:51;100283.02;;;4.95;74.26
84809;BME280;75044;53.126;18.008;2024-02-26T02:48:56;100284.06;;;4.95;74.16
84809;BME280;75044;53.126;18.008;2024-02-26T02:49:59;100281.29;;;4.95;74.01
84809;BME280;75044;53.126;18.008;2024-02-26T02:51:03;100280.11;;;4.95;73.81
84809;BME280;75044;53.126;18.008;2024-02-26T02:52:06;100286.88;;;4.94;73.75
84809;BME280;75044;53.126;18.008;2024-02-26T02:53:09;100289.03;;;4.92;73.66
84809;BME280;75044;53.126;18.008;2024-02-26T02:54:13;100287.87;;;4.91;73.71
84809;BME280;75044;53.126;18.008;2024-02-26T02:55:16;100289.12;;;4.90;73.61
84809;BME280;75044;53.126;18.008;2024-02-26T02:56:21;100288.97;;;4.89;73.52
84809;BME280;75044;53.126;18.008;2024-02-26T02:57:24;100286.60;;;4.88;73.63
84809;BME280;75044;53.126;18.008;2024-02-26T02:58:28;100287.83;;;4.88;73.69
84809;BME280;75044;53.126;18.008;2024-02-26T02:59:31;100286.85;;;4.86;73.63
84809;BME280;75044;53.126;18.008;2024-02-26T03:00:34;100285.04;;;4.84;73.56
84809;BME280;75044;53.126;18.008;2024-02-26T03:01:37;100289.48;;;4.81;73.71
84809;BME280;75044;53.126;18.008;2024-02-26T03:02:40;100290.77;;;4.79;73.71
84809;BME280;75044;53.126;18.008;2024-02-26T03:03:44;100290.89;;;4.76;73.86
84809;BME280;75044;53.126;18.008;2024-02-26T03:04:48;100290.73;;;4.76;73.97
84809;BME280;75044;53.126;18.008;2024-02-26T03:05:51;100288.30;;;4.76;73.91
84809;BME280;75044;53.126;18.008;2024-02-26T03:06:55;100283.48;;;4.75;74.10
84809;BME280;75044;53.126;18.008;2024-02-26T03:08:00;100282.65;;;4.75;74.10
84809;BME280;75044;53.126;18.008;2024-02-26T03:09:04;100279.21;;;4.74;74.10
84809;BME280;75044;53.126;18.008;2024-02-26T03:10:07;100281.00;;;4.73;74.17
84809;BME280;75044;53.126;18.008;2024-02-26T03:11:14;100284.73;;;4.71;73.97
84809;BME280;75044;53.126;18.008;2024-02-26T03:12:21;100283.47;;;4.67;74.12
84809;BME280;75044;53.126;18.008;2024-02-26T03:13:24;100281.13;;;4.65;74.35
84809;BME280;75044;53.126;18.008;2024-02-26T03:14:30;100283.07;;;4.65;74.27
84809;BME280;75044;53.126;18.008;2024-02-26T03:15:33;100281.94;;;4.62;74.16
84809;BME280;75044;53.126;18.008;2024-02-26T03:16:36;100277.65;;;4.62;74.30
84809;BME280;75044;53.126;18.008;2024-02-26T03:17:39;100276.15;;;4.60;74.49
84809;BME280;75044;53.126;18.008;2024-02-26T03:18:43;100273.77;;;4.59;74.51
84809;BME280;75044;53.126;18.008;2024-02-26T03:19:46;100273.98;;;4.58;74.34
84809;BME280;75044;53.126;18.008;2024-02-26T03:20:50;100270.77;;;4.56;74.30
84809;BME280;75044;53.126;18.008;2024-02-26T03:21:54;100267.51;;;4.56;74.30
84809;BME280;75044;53.126;18.008;2024-02-26T03:22:57;100267.21;;;4.54;74.56
84809;BME280;75044;53.126;18.008;2024-02-26T03:24:01;100267.62;;;4.53;74.53
84809;BME280;75044;53.126;18.008;2024-02-26T03:25:04;100265.25;;;4.52;74.65
84809;BME280;75044;53.126;18.008;2024-02-26T03:26:08;100265.96;;;4.51;74.64
84809;BME280;75044;53.126;18.008;2024-02-26T03:27:11;100262.98;;;4.48;74.59
84809;BME280;75044;53.126;18.008;2024-02-26T03:28:15;100265.00;;;4.49;74.62
84809;BME280;75044;53.126;18.008;2024-02-26T03:29:19;100268.89;;;4.47;74.68
84809;BME280;75044;53.126;18.008;2024-02-26T03:30:22;100267.39;;;4.45;74.70
84809;BME280;75044;53.126;18.008;2024-02-26T03:31:25;100268.52;;;4.43;74.77
84809;BME280;75044;53.126;18.008;2024-02-26T03:32:31;100264.09;;;4.42;74.79
84809;BME280;75044;53.126;18.008;2024-02-26T03:33:34;100268.79;;;4.41;74.92
84809;BME280;75044;53.126;18.008;2024-02-26T03:34:37;100268.02;;;4.38;74.98
84809;BME280;75044;53.126;18.008;2024-02-26T03:35:42;100267.39;;;4.36;74.97
84809;BME280;75044;53.126;18.008;2024-02-26T03:36:46;100269.15;;;4.35;75.08
84809;BME280;75044;53.126;18.008;2024-02-26T03:37:49;100267.48;;;4.35;75.16
84809;BME280;75044;53.126;18.008;2024-02-26T03:38:54;100272.33;;;4.34;75.08
84809;BME280;75044;53.126;18.008;2024-02-26T03:39:57;100273.70;;;4.34;75.12
84809;BME280;75044;53.126;18.008;2024-02-26T03:41:01;100275.45;;;4.34;75.25
84809;BME280;75044;53.126;18.008;2024-02-26T03:42:06;100279.64;;;4.32;75.08
84809;BME280;75044;53.126;18.008;2024-02-26T03:43:10;100278.60;;;4.28;75.09
84809;BME280;75044;53.126;18.008;2024-02-26T03:44:13;100278.46;;;4.27;75.19
84809;BME280;75044;53.126;18.008;2024-02-26T03:45:17;100281.30;;;4.25;75.15
84809;BME280;75044;53.126;18.008;2024-02-26T03:46:20;100275.98;;;4.24;75.29
84809;BME280;75044;53.126;18.008;2024-02-26T03:47:23;100274.02;;;4.22;75.13
84809;BME280;75044;53.126;18.008;2024-02-26T03:48:26;100273.28;;;4.18;75.24
84809;BME280;75044;53.126;18.008;2024-02-26T03:49:30;100277.34;;;4.16;75.49
84809;BME280;75044;53.126;18.008;2024-02-26T03:50:34;100277.71;;;4.16;75.61
84809;BME280;75044;53.126;18.008;2024-02-26T03:51:37;100279.27;;;4.15;75.68
84809;BME280;75044;53.126;18.008;2024-02-26T03:52:41;100282.89;;;4.16;75.77
84809;BME280;75044;53.126;18.008;2024-02-26T03:53:44;100282.15;;;4.17;75.71
84809;BME280;75044;53.126;18.008;2024-02-26T03:54:47;100285.07;;;4.17;75.78
84809;BME280;75044;53.126;18.008;2024-02-26T03:55:51;100284.23;;;4.17;75.62
84809;BME280;75044;53.126;18.008;2024-02-26T03:56:55;100290.35;;;4.19;75.66
84809;BME280;75044;53.126;18.008;2024-02-26T03:58:00;100287.88;;;4.21;75.76
84809;BME280;75044;53.126;18.008;2024-02-26T03:59:03;100288.52;;;4.22;75.85
84809;BME280;75044;53.126;18.008;2024-02-26T04:00:07;100287.82;;;4.22;75.74
84809;BME280;75044;53.126;18.008;2024-02-26T04:01:10;100287.27;;;4.23;75.58
84809;BME280;75044;53.126;18.008;2024-02-26T04:02:14;100285.50;;;4.24;75.79
84809;BME280;75044;53.126;18.008;2024-02-26T04:03:17;100286.30;;;4.26;75.84
84809;BME280;75044;53.126;18.008;2024-02-26T04:04:20;100287.66;;;4.27;75.90
84809;BME280;75044;53.126;18.008;2024-02-26T04:05:24;100283.09;;;4.28;75.73
84809;BME280;75044;53.126;18.008;2024-02-26T04:06:27;100283.58;;;4.29;75.95
84809;BME280;75044;53.126;18.008;2024-02-26T04:07:31;100283.56;;;4.29;76.12
84809;BME280;75044;53.126;18.008;2024-02-26T04:08:34;100285.81;;;4.29;75.78
84809;BME280;75044;53.126;18.008;2024-02-26T04:09:37;100280.14;;;4.28;75.73
84809;BME280;75044;53.126;18.008;2024-02-26T04:10:40;100284.74;;;4.30;75.94
84809;BME280;75044;53.126;18.008;2024-02-26T04:11:43;100282.94;;;4.32;76.16
84809;BME280;75044;53.126;18.008;2024-02-26T04:12:49;100281.32;;;4.34;76.20
84809;BME280;75044;53.126;18.008;2024-02-26T04:13:52;100282.10;;;4.36;76.10
84809;BME280;75044;53.126;18.008;2024-02-26T04:14:55;100278.02;;;4.39;76.03
84809;BME280;75044;53.126;18.008;2024-02-26T04:16:00;100283.86;;;4.40;76.17
84809;BME280;75044;53.126;18.008;2024-02-26T04:17:06;100279.59;;;4.43;76.09
84809;BME280;75044;53.126;18.008;2024-02-26T04:18:10;100276.03;;;4.46;76.03
84809;BME280;75044;53.126;18.008;2024-02-26T04:19:13;100276.79;;;4.49;76.16
84809;BME280;75044;53.126;18.008;2024-02-26T04:20:17;100276.54;;;4.51;75.97
84809;BME280;75044;53.126;18.008;2024-02-26T04:21:20;100276.46;;;4.52;76.01
84809;BME280;75044;53.126;18.008;2024-02-26T04:22:23;100275.94;;;4.52;75.86
84809;BME280;75044;53.126;18.008;2024-02-26T04:23:27;100275.22;;;4.53;75.87
84809;BME280;75044;53.126;18.008;2024-02-26T04:24:30;100274.93;;;4.52;75.76
84809;BME280;75044;53.126;18.008;2024-02-26T04:25:34;100277.20;;;4.51;75.89
84809;BME280;75044;53.126;18.008;2024-02-26T04:26:37;100276.81;;;4.52;76.12
84809;BME280;75044;53.126;18.008;2024-02-26T04:27:40;100274.22;;;4.52;75.99
84809;BME280;75044;53.126;18.008;2024-02-26T04:28:43;100277.19;;;4.52;75.82
84809;BME280;75044;53.126;18.008;2024-02-26T04:29:48;100276.95;;;4.49;75.65
84809;BME280;75044;53.126;18.008;2024-02-26T04:30:51;100279.24;;;4.48;75.89
84809;BME280;75044;53.126;18.008;2024-02-26T04:31:54;100278.27;;;4.46;75.72
84809;BME280;75044;53.126;18.008;2024-02-26T04:32:58;100277.16;;;4.44;75.85
84809;BME280;75044;53.126;18.008;2024-02-26T04:34:02;100274.48;;;4.41;76.10
84809;BME280;75044;53.126;18.008;2024-02-26T04:35:05;100282.84;;;4.44;75.92
84809;BME280;75044;53.126;18.008;2024-02-26T04:36:13;100288.05;;;4.43;75.61
84809;BME280;75044;53.126;18.008;2024-02-26T04:37:18;100288.84;;;4.41;75.77
84809;BME280;75044;53.126;18.008;2024-02-26T04:38:22;100289.39;;;4.40;75.58
84809;BME280;75044;53.126;18.008;2024-02-26T04:39:25;100288.88;;;4.40;75.78
84809;BME280;75044;53.126;18.008;2024-02-26T04:40:29;100285.14;;;4.38;75.77
84809;BME280;75044;53.126;18.008;2024-02-26T04:41:34;100286.05;;;4.37;75.89
84809;BME280;75044;53.126;18.008;2024-02-26T04:42:37;100286.95;;;4.36;75.88
84809;BME280;75044;53.126;18.008;2024-02-26T04:43:41;100286.63;;;4.35;76.11
84809;BME280;75044;53.126;18.008;2024-02-26T04:44:44;100289.38;;;4.36;76.04
84809;BME280;75044;53.126;18.008;2024-02-26T04:45:47;100292.89;;;4.34;75.92
84809;BME280;75044;53.126;18.008;2024-02-26T04:46:50;100293.11;;;4.33;75.91
84809;BME280;75044;53.126;18.008;2024-02-26T04:47:54;100292.36;;;4.30;75.81
84809;BME280;75044;53.126;18.008;2024-02-26T04:48:57;100294.84;;;4.28;75.87
84809;BME280;75044;53.126;18.008;2024-02-26T04:50:02;100292.89;;;4.26;75.98
84809;BME280;75044;53.126;18.008;2024-02-26T04:51:05;100294.47;;;4.25;75.92
84809;BME280;75044;53.126;18.008;2024-02-26T04:52:08;100293.27;;;4.24;75.71
84809;BME280;75044;53.126;18.008;2024-02-26T04:53:12;100294.59;;;4.21;75.52
84809;BME280;75044;53.126;18.008;2024-02-26T04:54:15;100293.53;;;4.18;75.64
84809;BME280;75044;53.126;18.008;2024-02-26T04:55:18;100294.79;;;4.16;75.70
84809;BME280;75044;53.126;18.008;2024-02-26T04:56:21;100293.98;;;4.15;75.77
84809;BME280;75044;53.126;18.008;2024-02-26T04:57:24;100295.40;;;4.14;75.87
84809;BME280;75044;53.126;18.008;2024-02-26T04:58:29;100301.36;;;4.12;75.70
84809;BME280;75044;53.126;18.008;2024-02-26T04:59:32;100300.20;;;4.10;75.77
84809;BME280;75044;53.126;18.008;2024-02-26T05:00:35;100301.48;;;4.08;75.97
84809;BME280;75044;53.126;18.008;2024-02-26T05:01:39;100305.70;;;4.06;75.75
84809;BME280;75044;53.126;18.008;2024-02-26T05:02:42;100300.96;;;4.04;76.03
84809;BME280;75044;53.126;18.008;2024-02-26T05:03:45;100302.09;;;4.06;76.20
84809;BME280;75044;53.126;18.008;2024-02-26T05:04:48;100307.44;;;4.06;75.88
84809;BME280;75044;53.126;18.008;2024-02-26T05:05:51;100304.02;;;4.05;75.80
84809;BME280;75044;53.126;18.008;2024-02-26T05:06:55;100305.23;;;4.05;75.95
84809;BME280;75044;53.126;18.008;2024-02-26T05:07:58;100310.10;;;4.04;75.92
84809;BME280;75044;53.126;18.008;2024-02-26T05:09:01;100305.45;;;4.04;75.95
84809;BME280;75044;53.126;18.008;2024-02-26T05:10:06;100305.95;;;4.04;75.97
84809;BME280;75044;53.126;18.008;2024-02-26T05:11:12;100306.48;;;4.04;75.80
84809;BME280;75044;53.126;18.008;2024-02-26T05:12:15;100309.08;;;4.04;75.62
84809;BME280;75044;53.126;18.008;2024-02-26T05:13:19;100310.81;;;4.04;75.77
84809;BME280;75044;53.126;18.008;2024-02-26T05:14:22;100312.11;;;4.01;75.77
84809;BME280;75044;53.126;18.008;2024-02-26T05:15:25;100316.10;;;4.01;75.88
84809;BME280;75044;53.126;18.008;2024-02-26T05:16:28;100317.55;;;3.99;75.73
84809;BME280;75044;53.126;18.008;2024-02-26T05:17:35;100320.20;;;3.98;75.62
84809;BME280;75044;53.126;18.008;2024-02-26T05:18:38;100323.21;;;3.95;75.61
84809;BME280;75044;53.126;18.008;2024-02-26T05:19:41;100325.01;;;3.93;75.50
84809;BME280;75044;53.126;18.008;2024-02-26T05:20:45;100324.75;;;3.91;75.64
84809;BME280;75044;53.126;18.008;2024-02-26T05:21:49;100330.12;;;3.91;75.73
84809;BME280;75044;53.126;18.008;2024-02-26T05:22:53;100333.25;;;3.90;75.81
84809;BME280;75044;53.126;18.008;2024-02-26T05:23:56;100333.44;;;3.89;75.97
84809;BME280;75044;53.126;18.008;2024-02-26T05:24:59;100330.86;;;3.89;75.85
84809;BME280;75044;53.126;18.008;2024-02-26T05:26:03;100333.39;;;3.86;75.90
84809;BME280;75044;53.126;18.008;2024-02-26T05:27:06;100336.23;;;3.84;75.84
84809;BME280;75044;53.126;18.008;2024-02-26T05:28:10;100339.94;;;3.82;75.87
84809;BME280;75044;53.126;18.008;2024-02-26T05:29:13;100341.23;;;3.80;75.85
84809;BME280;75044;53.126;18.008;2024-02-26T05:30:16;100343.70;;;3.78;75.65
84809;BME280;75044;53.126;18.008;2024-02-26T05:31:20;100342.31;;;3.78;75.88
84809;BME280;75044;53.126;18.008;2024-02-26T05:32:23;100342.86;;;3.77;75.92
84809;BME280;75044;53.126;18.008;2024-02-26T05:33:26;100340.05;;;3.74;75.86
84809;BME280;75044;53.126;18.008;2024-02-26T05:34:29;100339.08;;;3.72;76.00